Terminal Aerodrome Forecast
Issued by NWS New Orleans/Baton Rouge, LA

Home | Current Version | Previous Version | Text Only | Print | Product List | Glossary On
Versions: 1 2 3 4 5 6 7 8 9 10 11 12 13 14 15 16
000
FTUS44 KLIX 040550
TAFNEW
TAF
KNEW 040550Z 0406/0506 10023G28KT P6SM -RA OVC017
     FM040900 11010KT 6SM -RA OVC010
      TEMPO 0411/0413 2SM TSRA OVC007CB
     FM041300 14008KT 3SM -RA OVC008
     FM041500 16008KT 3SM SHRA OVC015
     FM041900 21009KT 3SM SHRA OVC025=

USA.gov is the U.S. government's official web portal to all federal, state and local government web resources and services.